sensor_id;sensor_type;location;lat;lon;timestamp;P1;durP1;ratioP1;P2;durP2;ratioP2
22230;SDS011;11284;48.086;-1.652;2023-02-26T00:00:19;11.98;;;3.38;;
22230;SDS011;11284;48.086;-1.652;2023-02-26T00:02:46;11.05;;;2.50;;
22230;SDS011;11284;48.086;-1.652;2023-02-26T00:05:13;12.10;;;3.78;;
22230;SDS011;11284;48.086;-1.652;2023-02-26T00:07:39;15.88;;;3.72;;
22230;SDS011;11284;48.086;-1.652;2023-02-26T00:10:06;9.93;;;2.78;;
22230;SDS011;11284;48.086;-1.652;2023-02-26T00:12:32;10.98;;;2.75;;
22230;SDS011;11284;48.086;-1.652;2023-02-26T00:14:59;12.05;;;2.92;;
22230;SDS011;11284;48.086;-1.652;2023-02-26T00:17:28;12.90;;;3.20;;
22230;SDS011;11284;48.086;-1.652;2023-02-26T00:19:57;14.55;;;3.80;;
22230;SDS011;11284;48.086;-1.652;2023-02-26T00:22:23;12.63;;;3.15;;
22230;SDS011;11284;48.086;-1.652;2023-02-26T00:24:49;13.52;;;3.03;;
22230;SDS011;11284;48.086;-1.652;2023-02-26T00:27:15;12.27;;;2.90;;
22230;SDS011;11284;48.086;-1.652;2023-02-26T00:29:41;13.73;;;3.20;;
22230;SDS011;11284;48.086;-1.652;2023-02-26T00:32:07;10.68;;;2.78;;
22230;SDS011;11284;48.086;-1.652;2023-02-26T00:34:34;13.55;;;2.75;;
22230;SDS011;11284;48.086;-1.652;2023-02-26T00:37:04;10.30;;;2.80;;
22230;SDS011;11284;48.086;-1.652;2023-02-26T00:39:34;9.48;;;2.58;;
22230;SDS011;11284;48.086;-1.652;2023-02-26T00:42:02;10.20;;;2.85;;
22230;SDS011;11284;48.086;-1.652;2023-02-26T00:44:28;8.90;;;2.55;;
22230;SDS011;11284;48.086;-1.652;2023-02-26T00:46:58;11.55;;;3.28;;
22230;SDS011;11284;48.086;-1.652;2023-02-26T00:50:01;13.32;;;3.00;;
22230;SDS011;11284;48.086;-1.652;2023-02-26T00:52:28;9.52;;;2.78;;
22230;SDS011;11284;48.086;-1.652;2023-02-26T00:54:57;14.98;;;3.60;;
22230;SDS011;11284;48.086;-1.652;2023-02-26T00:57:23;9.00;;;2.63;;
22230;SDS011;11284;48.086;-1.652;2023-02-26T00:59:49;8.80;;;2.38;;
22230;SDS011;11284;48.086;-1.652;2023-02-26T01:02:15;10.88;;;2.83;;
22230;SDS011;11284;48.086;-1.652;2023-02-26T01:04:41;12.27;;;2.85;;
22230;SDS011;11284;48.086;-1.652;2023-02-26T01:07:07;10.43;;;2.85;;
22230;SDS011;11284;48.086;-1.652;2023-02-26T01:09:34;9.55;;;3.08;;
22230;SDS011;11284;48.086;-1.652;2023-02-26T01:12:04;12.50;;;2.83;;
22230;SDS011;11284;48.086;-1.652;2023-02-26T01:14:31;10.60;;;3.55;;
22230;SDS011;11284;48.086;-1.652;2023-02-26T01:17:10;12.45;;;3.42;;
22230;SDS011;11284;48.086;-1.652;2023-02-26T01:22:31;8.13;;;2.55;;
22230;SDS011;11284;48.086;-1.652;2023-02-26T01:25:00;9.30;;;3.30;;
22230;SDS011;11284;48.086;-1.652;2023-02-26T01:27:27;13.82;;;3.03;;
22230;SDS011;11284;48.086;-1.652;2023-02-26T01:29:53;9.98;;;3.00;;
22230;SDS011;11284;48.086;-1.652;2023-02-26T01:34:52;11.32;;;3.35;;
22230;SDS011;11284;48.086;-1.652;2023-02-26T01:40:00;9.05;;;3.05;;
22230;SDS011;11284;48.086;-1.652;2023-02-26T01:42:30;9.45;;;3.00;;
22230;SDS011;11284;48.086;-1.652;2023-02-26T01:45:00;9.95;;;2.63;;
22230;SDS011;11284;48.086;-1.652;2023-02-26T01:47:29;10.75;;;2.70;;
22230;SDS011;11284;48.086;-1.652;2023-02-26T01:50:05;9.77;;;3.13;;
22230;SDS011;11284;48.086;-1.652;2023-02-26T01:54:57;7.20;;;2.83;;
22230;SDS011;11284;48.086;-1.652;2023-02-26T01:57:23;10.73;;;3.83;;
22230;SDS011;11284;48.086;-1.652;2023-02-26T01:59:50;9.23;;;3.17;;
22230;SDS011;11284;48.086;-1.652;2023-02-26T02:02:20;8.10;;;2.47;;
22230;SDS011;11284;48.086;-1.652;2023-02-26T02:04:47;11.80;;;3.30;;
22230;SDS011;11284;48.086;-1.652;2023-02-26T02:07:14;10.13;;;2.92;;
22230;SDS011;11284;48.086;-1.652;2023-02-26T02:09:40;9.35;;;3.08;;
22230;SDS011;11284;48.086;-1.652;2023-02-26T02:12:09;8.35;;;2.97;;
22230;SDS011;11284;48.086;-1.652;2023-02-26T02:17:18;10.35;;;3.15;;
22230;SDS011;11284;48.086;-1.652;2023-02-26T02:27:40;12.90;;;3.47;;
22230;SDS011;11284;48.086;-1.652;2023-02-26T02:30:23;10.23;;;2.83;;
22230;SDS011;11284;48.086;-1.652;2023-02-26T02:33:04;11.93;;;3.00;;
22230;SDS011;11284;48.086;-1.652;2023-02-26T02:35:33;10.90;;;3.05;;
22230;SDS011;11284;48.086;-1.652;2023-02-26T02:38:15;8.00;;;2.67;;
22230;SDS011;11284;48.086;-1.652;2023-02-26T02:40:45;11.50;;;3.30;;
22230;SDS011;11284;48.086;-1.652;2023-02-26T02:43:13;10.93;;;3.28;;
22230;SDS011;11284;48.086;-1.652;2023-02-26T02:45:47;9.13;;;2.92;;
22230;SDS011;11284;48.086;-1.652;2023-02-26T02:48:22;10.30;;;3.28;;
22230;SDS011;11284;48.086;-1.652;2023-02-26T02:50:59;12.02;;;3.55;;
22230;SDS011;11284;48.086;-1.652;2023-02-26T02:53:33;9.88;;;2.80;;
22230;SDS011;11284;48.086;-1.652;2023-02-26T02:56:15;11.13;;;3.15;;
22230;SDS011;11284;48.086;-1.652;2023-02-26T02:58:43;13.90;;;3.17;;
22230;SDS011;11284;48.086;-1.652;2023-02-26T03:01:13;7.85;;;2.85;;
22230;SDS011;11284;48.086;-1.652;2023-02-26T03:06:15;8.23;;;2.75;;
22230;SDS011;11284;48.086;-1.652;2023-02-26T03:08:42;9.07;;;2.83;;
22230;SDS011;11284;48.086;-1.652;2023-02-26T03:11:08;8.43;;;2.83;;
22230;SDS011;11284;48.086;-1.652;2023-02-26T03:13:34;8.65;;;3.00;;
22230;SDS011;11284;48.086;-1.652;2023-02-26T03:26:45;10.80;;;3.00;;
22230;SDS011;11284;48.086;-1.652;2023-02-26T03:29:17;10.68;;;3.35;;
22230;SDS011;11284;48.086;-1.652;2023-02-26T03:31:49;9.32;;;3.17;;
22230;SDS011;11284;48.086;-1.652;2023-02-26T03:36:47;11.35;;;3.45;;
22230;SDS011;11284;48.086;-1.652;2023-02-26T03:39:18;9.15;;;2.83;;
22230;SDS011;11284;48.086;-1.652;2023-02-26T03:44:13;9.15;;;2.50;;
22230;SDS011;11284;48.086;-1.652;2023-02-26T03:46:44;8.10;;;2.45;;
22230;SDS011;11284;48.086;-1.652;2023-02-26T03:49:16;11.60;;;2.75;;
22230;SDS011;11284;48.086;-1.652;2023-02-26T03:51:43;7.07;;;2.40;;
22230;SDS011;11284;48.086;-1.652;2023-02-26T03:54:14;11.05;;;2.83;;
22230;SDS011;11284;48.086;-1.652;2023-02-26T03:56:43;9.40;;;2.58;;
22230;SDS011;11284;48.086;-1.652;2023-02-26T03:59:10;13.18;;;2.95;;
22230;SDS011;11284;48.086;-1.652;2023-02-26T04:01:53;7.85;;;2.33;;
22230;SDS011;11284;48.086;-1.652;2023-02-26T04:04:27;8.77;;;2.60;;
22230;SDS011;11284;48.086;-1.652;2023-02-26T04:06:56;8.27;;;2.38;;
22230;SDS011;11284;48.086;-1.652;2023-02-26T04:09:22;9.07;;;2.88;;
22230;SDS011;11284;48.086;-1.652;2023-02-26T04:11:48;7.90;;;2.60;;
22230;SDS011;11284;48.086;-1.652;2023-02-26T04:14:14;11.80;;;3.25;;
22230;SDS011;11284;48.086;-1.652;2023-02-26T04:16:41;12.25;;;2.75;;
22230;SDS011;11284;48.086;-1.652;2023-02-26T04:19:07;11.35;;;2.70;;
22230;SDS011;11284;48.086;-1.652;2023-02-26T04:21:33;9.30;;;2.88;;
22230;SDS011;11284;48.086;-1.652;2023-02-26T04:23:59;7.35;;;2.95;;
22230;SDS011;11284;48.086;-1.652;2023-02-26T04:26:25;12.95;;;2.83;;
22230;SDS011;11284;48.086;-1.652;2023-02-26T04:28:51;5.60;;;2.55;;
22230;SDS011;11284;48.086;-1.652;2023-02-26T04:31:17;7.32;;;2.38;;
22230;SDS011;11284;48.086;-1.652;2023-02-26T04:33:43;10.10;;;3.17;;
22230;SDS011;11284;48.086;-1.652;2023-02-26T04:36:09;11.27;;;3.28;;
22230;SDS011;11284;48.086;-1.652;2023-02-26T04:38:36;8.15;;;2.65;;
22230;SDS011;11284;48.086;-1.652;2023-02-26T04:41:02;10.90;;;3.08;;
22230;SDS011;11284;48.086;-1.652;2023-02-26T04:43:28;8.88;;;2.83;;
22230;SDS011;11284;48.086;-1.652;2023-02-26T04:45:54;9.98;;;2.70;;
22230;SDS011;11284;48.086;-1.652;2023-02-26T04:48:20;9.85;;;2.70;;
22230;SDS011;11284;48.086;-1.652;2023-02-26T04:50:46;11.27;;;3.13;;
22230;SDS011;11284;48.086;-1.652;2023-02-26T04:53:12;8.45;;;2.58;;
22230;SDS011;11284;48.086;-1.652;2023-02-26T04:55:38;9.88;;;2.67;;
22230;SDS011;11284;48.086;-1.652;2023-02-26T04:58:05;7.22;;;2.63;;
22230;SDS011;11284;48.086;-1.652;2023-02-26T05:00:32;9.65;;;2.92;;
22230;SDS011;11284;48.086;-1.652;2023-02-26T05:02:58;11.48;;;3.00;;
22230;SDS011;11284;48.086;-1.652;2023-02-26T05:05:24;8.00;;;2.65;;
22230;SDS011;11284;48.086;-1.652;2023-02-26T05:07:50;12.73;;;3.40;;
22230;SDS011;11284;48.086;-1.652;2023-02-26T05:10:20;7.13;;;2.40;;
22230;SDS011;11284;48.086;-1.652;2023-02-26T05:12:46;10.82;;;2.75;;
22230;SDS011;11284;48.086;-1.652;2023-02-26T05:15:12;10.18;;;3.10;;
22230;SDS011;11284;48.086;-1.652;2023-02-26T05:17:38;9.43;;;2.80;;
22230;SDS011;11284;48.086;-1.652;2023-02-26T05:20:04;9.95;;;2.90;;
22230;SDS011;11284;48.086;-1.652;2023-02-26T05:22:34;10.48;;;3.00;;
22230;SDS011;11284;48.086;-1.652;2023-02-26T05:25:00;9.70;;;2.60;;
22230;SDS011;11284;48.086;-1.652;2023-02-26T05:27:26;9.32;;;2.72;;
22230;SDS011;11284;48.086;-1.652;2023-02-26T05:29:52;11.90;;;3.00;;
22230;SDS011;11284;48.086;-1.652;2023-02-26T05:32:18;8.10;;;3.08;;
22230;SDS011;11284;48.086;-1.652;2023-02-26T05:34:44;9.27;;;2.58;;
22230;SDS011;11284;48.086;-1.652;2023-02-26T05:37:10;9.40;;;2.92;;
22230;SDS011;11284;48.086;-1.652;2023-02-26T05:39:36;10.35;;;3.10;;
22230;SDS011;11284;48.086;-1.652;2023-02-26T05:42:02;8.73;;;2.63;;
22230;SDS011;11284;48.086;-1.652;2023-02-26T05:44:28;12.82;;;3.22;;
22230;SDS011;11284;48.086;-1.652;2023-02-26T05:46:54;8.93;;;2.90;;
22230;SDS011;11284;48.086;-1.652;2023-02-26T05:49:20;9.55;;;2.97;;
22230;SDS011;11284;48.086;-1.652;2023-02-26T05:51:46;10.15;;;2.97;;
22230;SDS011;11284;48.086;-1.652;2023-02-26T05:54:12;8.95;;;2.70;;
22230;SDS011;11284;48.086;-1.652;2023-02-26T05:56:38;7.30;;;2.80;;
22230;SDS011;11284;48.086;-1.652;2023-02-26T05:59:04;7.35;;;2.40;;
22230;SDS011;11284;48.086;-1.652;2023-02-26T06:01:30;7.55;;;2.90;;
22230;SDS011;11284;48.086;-1.652;2023-02-26T06:03:56;11.00;;;2.83;;
22230;SDS011;11284;48.086;-1.652;2023-02-26T06:06:22;8.38;;;2.67;;
22230;SDS011;11284;48.086;-1.652;2023-02-26T06:08:49;9.15;;;2.40;;
22230;SDS011;11284;48.086;-1.652;2023-02-26T06:11:15;9.00;;;2.90;;
22230;SDS011;11284;48.086;-1.652;2023-02-26T06:13:41;7.88;;;2.50;;
22230;SDS011;11284;48.086;-1.652;2023-02-26T06:16:07;7.13;;;2.47;;
22230;SDS011;11284;48.086;-1.652;2023-02-26T06:18:33;7.95;;;2.58;;
22230;SDS011;11284;48.086;-1.652;2023-02-26T06:21:00;7.22;;;2.30;;
22230;SDS011;11284;48.086;-1.652;2023-02-26T06:23:26;5.70;;;2.20;;
22230;SDS011;11284;48.086;-1.652;2023-02-26T06:25:52;9.52;;;3.10;;
22230;SDS011;11284;48.086;-1.652;2023-02-26T06:28:18;9.48;;;2.50;;
22230;SDS011;11284;48.086;-1.652;2023-02-26T06:30:45;8.05;;;2.30;;
22230;SDS011;11284;48.086;-1.652;2023-02-26T06:33:11;8.68;;;2.60;;
22230;SDS011;11284;48.086;-1.652;2023-02-26T06:35:37;7.82;;;2.47;;
22230;SDS011;11284;48.086;-1.652;2023-02-26T06:38:03;10.20;;;2.50;;
22230;SDS011;11284;48.086;-1.652;2023-02-26T06:40:29;10.13;;;2.85;;
22230;SDS011;11284;48.086;-1.652;2023-02-26T06:42:55;7.90;;;2.80;;
22230;SDS011;11284;48.086;-1.652;2023-02-26T06:45:21;7.60;;;2.78;;
22230;SDS011;11284;48.086;-1.652;2023-02-26T06:47:49;7.45;;;2.55;;
22230;SDS011;11284;48.086;-1.652;2023-02-26T06:50:15;8.10;;;2.45;;
22230;SDS011;11284;48.086;-1.652;2023-02-26T06:52:41;10.20;;;3.17;;
22230;SDS011;11284;48.086;-1.652;2023-02-26T06:55:07;8.48;;;2.30;;
22230;SDS011;11284;48.086;-1.652;2023-02-26T06:57:33;8.48;;;2.50;;
22230;SDS011;11284;48.086;-1.652;2023-02-26T06:59:59;6.50;;;2.58;;
22230;SDS011;11284;48.086;-1.652;2023-02-26T07:02:26;7.60;;;2.55;;
22230;SDS011;11284;48.086;-1.652;2023-02-26T07:04:52;9.77;;;2.72;;
22230;SDS011;11284;48.086;-1.652;2023-02-26T07:07:18;8.35;;;2.63;;
22230;SDS011;11284;48.086;-1.652;2023-02-26T07:09:44;10.23;;;2.47;;
22230;SDS011;11284;48.086;-1.652;2023-02-26T07:12:10;9.60;;;2.60;;
22230;SDS011;11284;48.086;-1.652;2023-02-26T07:14:36;7.97;;;2.38;;
22230;SDS011;11284;48.086;-1.652;2023-02-26T07:17:02;8.73;;;2.40;;
22230;SDS011;11284;48.086;-1.652;2023-02-26T07:19:29;9.65;;;2.78;;
22230;SDS011;11284;48.086;-1.652;2023-02-26T07:21:55;8.65;;;2.70;;
22230;SDS011;11284;48.086;-1.652;2023-02-26T07:24:21;7.75;;;2.38;;
22230;SDS011;11284;48.086;-1.652;2023-02-26T07:26:47;7.95;;;2.30;;
22230;SDS011;11284;48.086;-1.652;2023-02-26T07:29:13;8.23;;;2.88;;
22230;SDS011;11284;48.086;-1.652;2023-02-26T07:31:39;6.95;;;2.42;;
22230;SDS011;11284;48.086;-1.652;2023-02-26T07:34:05;6.07;;;2.30;;
22230;SDS011;11284;48.086;-1.652;2023-02-26T07:36:32;9.52;;;2.50;;
22230;SDS011;11284;48.086;-1.652;2023-02-26T07:38:58;10.48;;;2.78;;
22230;SDS011;11284;48.086;-1.652;2023-02-26T07:41:24;8.57;;;2.35;;
22230;SDS011;11284;48.086;-1.652;2023-02-26T07:43:50;7.65;;;2.40;;
22230;SDS011;11284;48.086;-1.652;2023-02-26T07:46:16;8.38;;;2.70;;
22230;SDS011;11284;48.086;-1.652;2023-02-26T07:48:42;7.88;;;2.40;;
22230;SDS011;11284;48.086;-1.652;2023-02-26T07:51:08;8.20;;;2.30;;
22230;SDS011;11284;48.086;-1.652;2023-02-26T07:53:35;7.47;;;2.40;;
22230;SDS011;11284;48.086;-1.652;2023-02-26T07:56:01;7.45;;;2.25;;
22230;SDS011;11284;48.086;-1.652;2023-02-26T07:58:27;7.88;;;2.28;;
22230;SDS011;11284;48.086;-1.652;2023-02-26T08:00:53;6.93;;;1.90;;
22230;SDS011;11284;48.086;-1.652;2023-02-26T08:03:19;6.07;;;2.00;;
22230;SDS011;11284;48.086;-1.652;2023-02-26T08:05:46;5.97;;;1.90;;
22230;SDS011;11284;48.086;-1.652;2023-02-26T08:08:12;5.88;;;2.30;;
22230;SDS011;11284;48.086;-1.652;2023-02-26T08:10:38;9.88;;;2.38;;
22230;SDS011;11284;48.086;-1.652;2023-02-26T08:13:05;6.47;;;2.08;;
22230;SDS011;11284;48.086;-1.652;2023-02-26T08:15:31;7.50;;;2.00;;
22230;SDS011;11284;48.086;-1.652;2023-02-26T08:17:57;8.10;;;2.10;;
22230;SDS011;11284;48.086;-1.652;2023-02-26T08:20:24;9.40;;;2.03;;
22230;SDS011;11284;48.086;-1.652;2023-02-26T08:22:50;6.38;;;1.85;;
22230;SDS011;11284;48.086;-1.652;2023-02-26T08:25:16;7.88;;;2.05;;
22230;SDS011;11284;48.086;-1.652;2023-02-26T08:27:42;5.35;;;1.73;;
22230;SDS011;11284;48.086;-1.652;2023-02-26T08:30:08;5.28;;;1.67;;
22230;SDS011;11284;48.086;-1.652;2023-02-26T08:32:35;8.40;;;2.20;;
22230;SDS011;11284;48.086;-1.652;2023-02-26T08:35:01;7.85;;;2.47;;
22230;SDS011;11284;48.086;-1.652;2023-02-26T08:37:27;8.50;;;2.17;;
22230;SDS011;11284;48.086;-1.652;2023-02-26T08:39:53;8.68;;;2.08;;
22230;SDS011;11284;48.086;-1.652;2023-02-26T08:42:19;4.88;;;1.70;;
22230;SDS011;11284;48.086;-1.652;2023-02-26T08:44:45;8.23;;;2.00;;
22230;SDS011;11284;48.086;-1.652;2023-02-26T08:47:12;5.97;;;1.83;;
22230;SDS011;11284;48.086;-1.652;2023-02-26T08:49:38;8.48;;;2.40;;
22230;SDS011;11284;48.086;-1.652;2023-02-26T08:52:04;4.05;;;1.60;;
22230;SDS011;11284;48.086;-1.652;2023-02-26T08:54:30;6.25;;;1.80;;
22230;SDS011;11284;48.086;-1.652;2023-02-26T08:56:56;8.07;;;1.92;;
22230;SDS011;11284;48.086;-1.652;2023-02-26T08:59:23;7.70;;;2.00;;
22230;SDS011;11284;48.086;-1.652;2023-02-26T09:01:49;10.30;;;2.05;;
22230;SDS011;11284;48.086;-1.652;2023-02-26T09:04:15;5.90;;;1.73;;
22230;SDS011;11284;48.086;-1.652;2023-02-26T09:06:41;8.05;;;1.85;;
22230;SDS011;11284;48.086;-1.652;2023-02-26T09:09:07;5.32;;;1.83;;
22230;SDS011;11284;48.086;-1.652;2023-02-26T09:11:34;7.82;;;1.67;;
22230;SDS011;11284;48.086;-1.652;2023-02-26T09:14:01;5.82;;;1.67;;
22230;SDS011;11284;48.086;-1.652;2023-02-26T09:16:27;7.20;;;2.08;;
22230;SDS011;11284;48.086;-1.652;2023-02-26T09:18:53;6.25;;;1.73;;
22230;SDS011;11284;48.086;-1.652;2023-02-26T09:21:19;7.03;;;1.75;;
22230;SDS011;11284;48.086;-1.652;2023-02-26T09:23:46;8.65;;;2.00;;
22230;SDS011;11284;48.086;-1.652;2023-02-26T09:26:12;6.43;;;1.63;;
22230;SDS011;11284;48.086;-1.652;2023-02-26T09:28:38;6.03;;;1.83;;
22230;SDS011;11284;48.086;-1.652;2023-02-26T09:31:04;5.05;;;1.80;;
22230;SDS011;11284;48.086;-1.652;2023-02-26T09:33:33;7.50;;;1.98;;
22230;SDS011;11284;48.086;-1.652;2023-02-26T09:36:00;7.60;;;1.80;;
22230;SDS011;11284;48.086;-1.652;2023-02-26T09:38:27;7.82;;;2.15;;
22230;SDS011;11284;48.086;-1.652;2023-02-26T09:40:54;5.72;;;1.70;;
22230;SDS011;11284;48.086;-1.652;2023-02-26T09:48:52;4.90;;;1.70;;
22230;SDS011;11284;48.086;-1.652;2023-02-26T09:51:22;5.10;;;1.60;;
22230;SDS011;11284;48.086;-1.652;2023-02-26T09:53:49;8.73;;;1.83;;
22230;SDS011;11284;48.086;-1.652;2023-02-26T09:56:17;5.13;;;1.60;;
22230;SDS011;11284;48.086;-1.652;2023-02-26T09:58:44;7.10;;;1.70;;
22230;SDS011;11284;48.086;-1.652;2023-02-26T10:13:58;6.50;;;2.22;;
22230;SDS011;11284;48.086;-1.652;2023-02-26T10:16:27;5.28;;;1.60;;
22230;SDS011;11284;48.086;-1.652;2023-02-26T10:19:00;6.88;;;2.03;;
22230;SDS011;11284;48.086;-1.652;2023-02-26T10:21:29;9.30;;;1.85;;
22230;SDS011;11284;48.086;-1.652;2023-02-26T10:23:59;6.97;;;1.80;;
22230;SDS011;11284;48.086;-1.652;2023-02-26T10:26:27;4.70;;;1.67;;
22230;SDS011;11284;48.086;-1.652;2023-02-26T10:34:31;6.68;;;1.25;;
22230;SDS011;11284;48.086;-1.652;2023-02-26T10:41:53;5.05;;;1.45;;
22230;SDS011;11284;48.086;-1.652;2023-02-26T10:44:43;5.95;;;1.33;;
22230;SDS011;11284;48.086;-1.652;2023-02-26T10:47:17;4.75;;;1.35;;
22230;SDS011;11284;48.086;-1.652;2023-02-26T10:49:50;3.47;;;1.15;;
22230;SDS011;11284;48.086;-1.652;2023-02-26T10:52:22;4.93;;;1.10;;
22230;SDS011;11284;48.086;-1.652;2023-02-26T10:57:31;6.75;;;1.67;;
22230;SDS011;11284;48.086;-1.652;2023-02-26T10:59:59;3.92;;;0.95;;
22230;SDS011;11284;48.086;-1.652;2023-02-26T11:02:39;6.90;;;1.30;;
22230;SDS011;11284;48.086;-1.652;2023-02-26T11:05:07;5.18;;;1.20;;
22230;SDS011;11284;48.086;-1.652;2023-02-26T11:07:38;4.37;;;1.40;;
22230;SDS011;11284;48.086;-1.652;2023-02-26T11:10:11;4.22;;;1.52;;
22230;SDS011;11284;48.086;-1.652;2023-02-26T11:12:37;5.45;;;1.35;;
22230;SDS011;11284;48.086;-1.652;2023-02-26T11:15:03;4.88;;;1.30;;
22230;SDS011;11284;48.086;-1.652;2023-02-26T11:17:30;4.22;;;1.00;;
22230;SDS011;11284;48.086;-1.652;2023-02-26T11:22:27;4.80;;;1.05;;
22230;SDS011;11284;48.086;-1.652;2023-02-26T11:24:53;4.72;;;1.23;;
22230;SDS011;11284;48.086;-1.652;2023-02-26T11:27:23;6.80;;;1.35;;
22230;SDS011;11284;48.086;-1.652;2023-02-26T11:29:55;4.97;;;1.30;;
22230;SDS011;11284;48.086;-1.652;2023-02-26T11:32:22;4.80;;;1.05;;
22230;SDS011;11284;48.086;-1.652;2023-02-26T11:34:50;5.25;;;1.23;;
22230;SDS011;11284;48.086;-1.652;2023-02-26T11:37:21;5.30;;;1.40;;
22230;SDS011;11284;48.086;-1.652;2023-02-26T11:39:49;3.85;;;1.20;;
22230;SDS011;11284;48.086;-1.652;2023-02-26T11:42:18;5.88;;;1.15;;
22230;SDS011;11284;48.086;-1.652;2023-02-26T11:44:44;5.25;;;1.40;;
22230;SDS011;11284;48.086;-1.652;2023-02-26T11:47:14;7.30;;;1.50;;
22230;SDS011;11284;48.086;-1.652;2023-02-26T11:49:42;3.70;;;1.20;;
22230;SDS011;11284;48.086;-1.652;2023-02-26T11:54:36;7.72;;;2.35;;
22230;SDS011;11284;48.086;-1.652;2023-02-26T11:57:04;7.28;;;1.60;;
22230;SDS011;11284;48.086;-1.652;2023-02-26T11:59:32;7.13;;;1.95;;
22230;SDS011;11284;48.086;-1.652;2023-02-26T12:02:09;6.68;;;2.45;;
22230;SDS011;11284;48.086;-1.652;2023-02-26T12:04:37;7.28;;;1.80;;
22230;SDS011;11284;48.086;-1.652;2023-02-26T12:07:07;6.00;;;1.73;;
22230;SDS011;11284;48.086;-1.652;2023-02-26T12:09:33;6.35;;;1.50;;
22230;SDS011;11284;48.086;-1.652;2023-02-26T12:28:25;5.05;;;1.40;;
22230;SDS011;11284;48.086;-1.652;2023-02-26T12:33:28;4.50;;;1.38;;
22230;SDS011;11284;48.086;-1.652;2023-02-26T12:38:24;4.13;;;1.20;;
22230;SDS011;11284;48.086;-1.652;2023-02-26T12:51:17;4.93;;;1.50;;
22230;SDS011;11284;48.086;-1.652;2023-02-26T13:06:33;5.10;;;1.30;;
22230;SDS011;11284;48.086;-1.652;2023-02-26T13:09:27;5.18;;;1.50;;
22230;SDS011;11284;48.086;-1.652;2023-02-26T13:12:07;4.35;;;1.10;;
22230;SDS011;11284;48.086;-1.652;2023-02-26T13:14:41;5.05;;;1.10;;
22230;SDS011;11284;48.086;-1.652;2023-02-26T13:19:41;4.05;;;1.70;;
22230;SDS011;11284;48.086;-1.652;2023-02-26T13:24:35;12.88;;;7.60;;
22230;SDS011;11284;48.086;-1.652;2023-02-26T13:27:02;6.95;;;4.10;;
22230;SDS011;11284;48.086;-1.652;2023-02-26T13:29:32;4.57;;;1.58;;
22230;SDS011;11284;48.086;-1.652;2023-02-26T13:32:00;4.65;;;1.60;;
22230;SDS011;11284;48.086;-1.652;2023-02-26T13:37:00;5.20;;;1.55;;
22230;SDS011;11284;48.086;-1.652;2023-02-26T13:39:40;5.13;;;1.75;;
22230;SDS011;11284;48.086;-1.652;2023-02-26T13:47:20;4.30;;;1.20;;
22230;SDS011;11284;48.086;-1.652;2023-02-26T13:52:23;3.20;;;1.30;;
22230;SDS011;11284;48.086;-1.652;2023-02-26T13:54:49;3.50;;;0.93;;
22230;SDS011;11284;48.086;-1.652;2023-02-26T14:02:49;3.67;;;1.00;;
22230;SDS011;11284;48.086;-1.652;2023-02-26T14:05:27;3.95;;;1.13;;
22230;SDS011;11284;48.086;-1.652;2023-02-26T14:08:06;4.53;;;1.13;;
22230;SDS011;11284;48.086;-1.652;2023-02-26T14:13:18;3.45;;;1.17;;
22230;SDS011;11284;48.086;-1.652;2023-02-26T14:23:49;2.70;;;0.90;;
22230;SDS011;11284;48.086;-1.652;2023-02-26T14:26:16;2.92;;;1.08;;
22230;SDS011;11284;48.086;-1.652;2023-02-26T14:28:44;3.38;;;1.00;;
22230;SDS011;11284;48.086;-1.652;2023-02-26T14:31:20;5.75;;;1.00;;
22230;SDS011;11284;48.086;-1.652;2023-02-26T14:33:56;3.03;;;0.85;;
22230;SDS011;11284;48.086;-1.652;2023-02-26T14:36:30;3.55;;;0.90;;
22230;SDS011;11284;48.086;-1.652;2023-02-26T14:38:57;3.78;;;1.00;;
22230;SDS011;11284;48.086;-1.652;2023-02-26T14:41:25;4.50;;;1.10;;
22230;SDS011;11284;48.086;-1.652;2023-02-26T14:44:04;4.65;;;1.20;;
22230;SDS011;11284;48.086;-1.652;2023-02-26T14:46:33;3.78;;;0.90;;
22230;SDS011;11284;48.086;-1.652;2023-02-26T14:49:00;3.88;;;1.08;;
22230;SDS011;11284;48.086;-1.652;2023-02-26T14:54:05;3.22;;;1.02;;
22230;SDS011;11284;48.086;-1.652;2023-02-26T15:07:22;3.28;;;0.70;;
22230;SDS011;11284;48.086;-1.652;2023-02-26T15:15:29;2.53;;;0.70;;
22230;SDS011;11284;48.086;-1.652;2023-02-26T15:23:27;3.72;;;0.98;;
22230;SDS011;11284;48.086;-1.652;2023-02-26T15:25:56;4.32;;;1.00;;
22230;SDS011;11284;48.086;-1.652;2023-02-26T15:30:52;3.20;;;0.80;;
22230;SDS011;11284;48.086;-1.652;2023-02-26T15:33:19;4.32;;;0.77;;
22230;SDS011;11284;48.086;-1.652;2023-02-26T15:35:47;2.88;;;0.90;;
22230;SDS011;11284;48.086;-1.652;2023-02-26T15:38:14;2.40;;;0.80;;
22230;SDS011;11284;48.086;-1.652;2023-02-26T15:40:40;3.97;;;1.08;;
22230;SDS011;11284;48.086;-1.652;2023-02-26T15:43:07;2.95;;;0.90;;
22230;SDS011;11284;48.086;-1.652;2023-02-26T15:45:38;3.90;;;1.02;;
22230;SDS011;11284;48.086;-1.652;2023-02-26T15:48:10;3.10;;;0.90;;
22230;SDS011;11284;48.086;-1.652;2023-02-26T15:50:38;5.32;;;1.27;;
22230;SDS011;11284;48.086;-1.652;2023-02-26T15:53:06;3.53;;;1.08;;
22230;SDS011;11284;48.086;-1.652;2023-02-26T15:55:36;4.05;;;1.10;;
22230;SDS011;11284;48.086;-1.652;2023-02-26T15:58:04;3.05;;;1.08;;
22230;SDS011;11284;48.086;-1.652;2023-02-26T16:00:32;4.10;;;1.58;;
22230;SDS011;11284;48.086;-1.652;2023-02-26T16:03:00;3.42;;;1.17;;
22230;SDS011;11284;48.086;-1.652;2023-02-26T16:05:26;3.95;;;1.10;;
22230;SDS011;11284;48.086;-1.652;2023-02-26T16:07:53;3.30;;;0.93;;
22230;SDS011;11284;48.086;-1.652;2023-02-26T16:10:27;3.05;;;1.10;;
22230;SDS011;11284;48.086;-1.652;2023-02-26T16:12:54;4.18;;;1.15;;
22230;SDS011;11284;48.086;-1.652;2023-02-26T16:15:53;4.30;;;1.60;;
22230;SDS011;11284;48.086;-1.652;2023-02-26T16:18:13;4.85;;;1.40;;
22230;SDS011;11284;48.086;-1.652;2023-02-26T16:20:42;4.25;;;1.10;;
22230;SDS011;11284;48.086;-1.652;2023-02-26T16:23:10;3.90;;;1.20;;
22230;SDS011;11284;48.086;-1.652;2023-02-26T16:25:42;3.65;;;1.10;;
22230;SDS011;11284;48.086;-1.652;2023-02-26T16:28:54;5.75;;;1.10;;
22230;SDS011;11284;48.086;-1.652;2023-02-26T16:31:02;4.00;;;0.93;;
22230;SDS011;11284;48.086;-1.652;2023-02-26T16:33:31;3.97;;;1.30;;
22230;SDS011;11284;48.086;-1.652;2023-02-26T16:36:05;4.15;;;1.27;;
22230;SDS011;11284;48.086;-1.652;2023-02-26T16:38:45;3.60;;;1.52;;
22230;SDS011;11284;48.086;-1.652;2023-02-26T16:41:13;2.90;;;1.00;;
22230;SDS011;11284;48.086;-1.652;2023-02-26T16:46:13;3.90;;;1.30;;
22230;SDS011;11284;48.086;-1.652;2023-02-26T16:48:51;3.20;;;1.02;;
22230;SDS011;11284;48.086;-1.652;2023-02-26T16:51:22;3.50;;;1.20;;
22230;SDS011;11284;48.086;-1.652;2023-02-26T16:53:53;3.17;;;1.02;;
22230;SDS011;11284;48.086;-1.652;2023-02-26T16:56:23;3.55;;;1.20;;
22230;SDS011;11284;48.086;-1.652;2023-02-26T16:59:02;4.13;;;1.00;;
22230;SDS011;11284;48.086;-1.652;2023-02-26T17:01:30;3.97;;;1.20;;
22230;SDS011;11284;48.086;-1.652;2023-02-26T17:03:59;4.38;;;0.85;;
22230;SDS011;11284;48.086;-1.652;2023-02-26T17:06:26;4.80;;;1.48;;
22230;SDS011;11284;48.086;-1.652;2023-02-26T17:08:58;3.55;;;1.15;;
22230;SDS011;11284;48.086;-1.652;2023-02-26T17:11:28;3.05;;;1.27;;
22230;SDS011;11284;48.086;-1.652;2023-02-26T17:14:12;4.60;;;1.33;;
22230;SDS011;11284;48.086;-1.652;2023-02-26T17:16:43;5.18;;;1.27;;
22230;SDS011;11284;48.086;-1.652;2023-02-26T17:19:09;3.47;;;1.20;;
22230;SDS011;11284;48.086;-1.652;2023-02-26T17:21:36;4.82;;;1.55;;
22230;SDS011;11284;48.086;-1.652;2023-02-26T17:24:04;4.35;;;1.65;;
22230;SDS011;11284;48.086;-1.652;2023-02-26T17:26:30;4.28;;;1.90;;
22230;SDS011;11284;48.086;-1.652;2023-02-26T17:28:56;4.20;;;1.58;;
22230;SDS011;11284;48.086;-1.652;2023-02-26T17:31:22;5.90;;;1.80;;
22230;SDS011;11284;48.086;-1.652;2023-02-26T17:33:48;5.72;;;2.05;;
22230;SDS011;11284;48.086;-1.652;2023-02-26T17:36:16;6.13;;;2.35;;
22230;SDS011;11284;48.086;-1.652;2023-02-26T17:38:44;4.85;;;1.60;;